createdAt,value
2023-01-09T00:01:59.589Z,9.43
2023-01-09T00:04:26.173Z,9.42
2023-01-09T00:06:56.268Z,9.40
2023-01-09T00:09:24.081Z,9.41
2023-01-09T00:11:51.537Z,9.44
2023-01-09T00:14:19.111Z,9.42
2023-01-09T00:16:45.893Z,9.39
2023-01-09T00:19:12.513Z,9.35
2023-01-09T00:21:39.178Z,9.33
2023-01-09T00:24:06.238Z,9.32
2023-01-09T00:26:33.183Z,9.31
2023-01-09T00:28:59.748Z,9.29
2023-01-09T00:31:26.389Z,9.27
2023-01-09T00:34:00.184Z,9.20
2023-01-09T00:36:27.230Z,9.19
2023-01-09T00:38:53.831Z,9.14
2023-01-09T00:41:34.437Z,9.14
2023-01-09T00:44:06.164Z,9.15
2023-01-09T00:46:37.682Z,9.12
2023-01-09T00:49:07.533Z,9.14
2023-01-09T00:51:34.524Z,9.15
2023-01-09T00:54:03.224Z,9.18
2023-01-09T00:56:29.965Z,9.13
2023-01-09T00:58:56.690Z,9.12
2023-01-09T01:01:23.340Z,9.08
2023-01-09T01:03:49.994Z,9.10
2023-01-09T01:06:35.177Z,9.09
2023-01-09T01:09:01.968Z,9.09
2023-01-09T01:11:28.495Z,9.09
2023-01-09T01:13:55.429Z,9.05
2023-01-09T01:16:22.034Z,9.03
2023-01-09T01:18:48.843Z,8.99
2023-01-09T01:21:15.579Z,9.01
2023-01-09T01:23:43.205Z,8.98
2023-01-09T01:26:15.412Z,8.96
2023-01-09T01:28:42.466Z,8.94
2023-01-09T01:31:15.254Z,8.91
2023-01-09T01:33:41.817Z,8.89
2023-01-09T01:36:09.078Z,8.85
2023-01-09T01:38:36.760Z,8.83
2023-01-09T01:41:04.437Z,8.81
2023-01-09T01:43:51.618Z,8.77
2023-01-09T01:46:19.127Z,8.77
2023-01-09T01:48:48.062Z,8.77
2023-01-09T01:51:18.310Z,8.77
2023-01-09T01:53:49.678Z,8.78
2023-01-09T01:56:28.827Z,8.79
2023-01-09T01:59:07.103Z,8.79
2023-01-09T02:01:34.606Z,8.81
2023-01-09T02:04:02.592Z,8.84
2023-01-09T02:06:30.549Z,8.84
2023-01-09T02:08:57.901Z,8.84
2023-01-09T02:11:24.874Z,8.84
2023-01-09T02:13:51.966Z,8.85
2023-01-09T02:16:33.497Z,8.85
2023-01-09T02:19:37.873Z,8.84
2023-01-09T02:22:16.575Z,8.86
2023-01-09T02:25:28.471Z,8.85
2023-01-09T02:28:33.901Z,8.84
2023-01-09T02:31:09.080Z,8.86
2023-01-09T02:34:03.351Z,8.85
2023-01-09T02:37:02.483Z,8.75
2023-01-09T02:39:47.244Z,8.67
2023-01-09T02:42:19.054Z,8.63
2023-01-09T02:44:45.612Z,8.63
2023-01-09T02:47:15.157Z,8.64
2023-01-09T02:49:46.755Z,8.64
2023-01-09T02:52:35.079Z,8.56
2023-01-09T02:55:01.660Z,8.53
2023-01-09T02:58:05.358Z,8.44
2023-01-09T03:00:41.907Z,8.42
2023-01-09T03:03:17.762Z,8.39
2023-01-09T03:05:51.476Z,8.32
2023-01-09T03:08:30.442Z,8.19
2023-01-09T03:11:04.804Z,8.06
2023-01-09T03:13:42.138Z,7.98
2023-01-09T03:16:11.594Z,7.91
2023-01-09T03:18:39.367Z,7.86
2023-01-09T03:21:08.814Z,7.85
2023-01-09T03:23:51.340Z,7.83
2023-01-09T03:26:18.665Z,7.84
2023-01-09T03:28:46.109Z,7.86
2023-01-09T03:31:13.250Z,7.83
2023-01-09T03:33:40.344Z,7.82
2023-01-09T03:36:07.523Z,7.80
2023-01-09T03:38:34.325Z,7.83
2023-01-09T03:41:01.044Z,7.83
2023-01-09T03:43:28.194Z,7.84
2023-01-09T03:45:55.261Z,7.84
2023-01-09T03:48:21.855Z,7.83
2023-01-09T03:50:52.737Z,7.84
2023-01-09T03:53:21.137Z,7.82
2023-01-09T03:55:49.748Z,7.72
2023-01-09T03:58:17.964Z,7.68
2023-01-09T04:00:46.240Z,7.69
2023-01-09T04:03:13.258Z,7.68
2023-01-09T04:05:39.824Z,7.70
2023-01-09T04:08:06.596Z,7.72
2023-01-09T04:10:33.284Z,7.68
2023-01-09T04:12:59.876Z,7.68
2023-01-09T04:15:26.638Z,7.70
2023-01-09T04:17:53.194Z,7.72
2023-01-09T04:20:19.749Z,7.75
2023-01-09T04:22:46.504Z,7.78
2023-01-09T04:25:13.137Z,7.82
2023-01-09T04:27:39.715Z,7.86
2023-01-09T04:30:07.016Z,7.87
2023-01-09T04:32:33.560Z,7.90
2023-01-09T04:35:00.152Z,7.96
2023-01-09T04:37:26.773Z,7.98
2023-01-09T04:39:55.999Z,7.99
2023-01-09T04:42:23.095Z,8.01
2023-01-09T04:44:53.699Z,8.02
2023-01-09T04:47:21.565Z,8.02
2023-01-09T04:49:48.173Z,8.05
2023-01-09T04:52:14.841Z,8.10
2023-01-09T04:54:41.594Z,8.11
2023-01-09T04:57:08.157Z,8.13
2023-01-09T04:59:35.088Z,8.12
2023-01-09T05:02:01.887Z,8.13
2023-01-09T05:04:28.569Z,8.14
2023-01-09T05:06:55.183Z,8.13
2023-01-09T05:09:22.822Z,8.15
2023-01-09T05:11:50.351Z,8.14
2023-01-09T05:14:17.051Z,8.16
2023-01-09T05:16:43.704Z,8.17
2023-01-09T05:19:10.354Z,8.17
2023-01-09T05:21:37.160Z,8.20
2023-01-09T05:24:03.806Z,8.22
2023-01-09T05:26:30.422Z,8.21
2023-01-09T05:28:56.970Z,8.20
2023-01-09T05:31:25.593Z,8.16
2023-01-09T05:33:53.113Z,8.17
2023-01-09T05:36:20.013Z,8.17
2023-01-09T05:38:46.581Z,8.16
2023-01-09T05:41:13.160Z,8.13
2023-01-09T05:43:39.788Z,8.13
2023-01-09T05:46:06.542Z,8.14
2023-01-09T05:48:33.150Z,8.16
2023-01-09T05:50:59.748Z,8.16
2023-01-09T05:53:26.330Z,8.44
2023-01-09T05:55:52.862Z,8.77
2023-01-09T05:58:19.544Z,8.76
2023-01-09T06:00:46.217Z,8.83
2023-01-09T06:03:12.785Z,8.90
2023-01-09T06:05:39.519Z,9.20
2023-01-09T06:08:06.121Z,9.43
2023-01-09T06:10:32.723Z,9.43
2023-01-09T06:12:59.264Z,9.36
2023-01-09T06:15:25.866Z,9.36
2023-01-09T06:17:52.428Z,9.34
2023-01-09T06:20:19.243Z,9.59
2023-01-09T06:22:45.949Z,9.40
2023-01-09T06:25:13.436Z,9.40
2023-01-09T06:27:40.066Z,9.58
2023-01-09T06:30:07.540Z,9.48
2023-01-09T06:32:34.117Z,9.53
2023-01-09T06:35:00.711Z,9.44
2023-01-09T06:37:27.461Z,9.21
2023-01-09T06:39:54.781Z,8.96
2023-01-09T06:42:22.115Z,8.74
2023-01-09T06:44:48.656Z,8.58
2023-01-09T06:47:15.243Z,8.47
2023-01-09T06:49:41.819Z,8.35
2023-01-09T06:52:08.372Z,8.27
2023-01-09T06:54:35.293Z,8.24
2023-01-09T06:57:02.155Z,8.22
2023-01-09T06:59:28.729Z,8.19
2023-01-09T07:01:55.890Z,8.16
2023-01-09T07:04:23.366Z,8.12
2023-01-09T07:06:50.102Z,8.11
2023-01-09T07:09:16.764Z,8.09
2023-01-09T07:11:43.427Z,8.05
2023-01-09T07:14:09.994Z,8.07
2023-01-09T07:16:36.644Z,8.07
2023-01-09T07:19:03.329Z,8.06
2023-01-09T07:21:32.562Z,8.08
2023-01-09T07:23:59.384Z,8.08
2023-01-09T07:26:25.974Z,8.10
2023-01-09T07:28:52.675Z,8.08
2023-01-09T07:31:19.276Z,8.09
2023-01-09T07:33:45.935Z,8.10
2023-01-09T07:36:12.636Z,8.15
2023-01-09T07:38:39.689Z,8.20
2023-01-09T07:41:06.477Z,8.21
2023-01-09T07:43:33.203Z,8.22
2023-01-09T07:45:59.937Z,8.25
2023-01-09T07:48:26.515Z,8.25
2023-01-09T07:50:53.119Z,8.23
2023-01-09T07:53:19.731Z,8.21
2023-01-09T07:55:46.340Z,8.19
2023-01-09T07:58:13.082Z,8.20
2023-01-09T08:00:39.840Z,8.22
2023-01-09T08:03:06.577Z,8.25
2023-01-09T08:05:33.669Z,8.24
2023-01-09T08:08:01.982Z,8.24
2023-01-09T08:10:28.628Z,8.23
2023-01-09T08:12:55.301Z,8.23
2023-01-09T08:15:21.992Z,8.21
2023-01-09T08:17:49.880Z,8.17
2023-01-09T08:20:17.644Z,8.22
2023-01-09T08:22:50.182Z,8.23
2023-01-09T08:25:18.180Z,8.20
2023-01-09T08:27:45.276Z,8.18
2023-01-09T08:30:12.883Z,8.17
2023-01-09T08:32:39.813Z,8.19
2023-01-09T08:35:07.568Z,8.24
2023-01-09T08:37:34.271Z,8.24
2023-01-09T08:40:00.996Z,8.25
2023-01-09T08:42:46.336Z,8.27
2023-01-09T08:45:48.571Z,8.27
2023-01-09T08:48:15.386Z,8.30
2023-01-09T08:50:42.046Z,8.30
2023-01-09T08:53:08.631Z,8.31
2023-01-09T08:55:35.236Z,8.34
2023-01-09T08:58:02.425Z,8.34
2023-01-09T09:00:28.970Z,8.32
2023-01-09T09:03:00.198Z,8.32
2023-01-09T09:05:28.541Z,8.35
2023-01-09T09:07:56.384Z,8.36
2023-01-09T09:10:25.011Z,8.38
2023-01-09T09:12:53.358Z,8.33
2023-01-09T09:15:24.195Z,8.30
2023-01-09T09:18:03.125Z,8.26
2023-01-09T09:20:35.754Z,8.23
2023-01-09T09:23:02.752Z,8.17
2023-01-09T09:25:29.666Z,8.14
2023-01-09T09:27:56.451Z,8.13
2023-01-09T09:30:23.948Z,8.12
2023-01-09T09:32:50.663Z,8.10
2023-01-09T09:35:18.114Z,8.13
2023-01-09T09:37:56.746Z,8.07
2023-01-09T09:40:50.782Z,7.97
2023-01-09T09:43:51.591Z,7.92
2023-01-09T09:46:21.358Z,7.89
2023-01-09T09:48:52.271Z,7.84
2023-01-09T09:51:28.299Z,7.87
2023-01-09T09:54:00.028Z,7.89
2023-01-09T09:56:29.912Z,7.90
2023-01-09T09:59:02.213Z,7.91
2023-01-09T10:01:44.853Z,7.90
2023-01-09T10:04:16.664Z,7.95
2023-01-09T10:06:52.762Z,7.98
2023-01-09T10:09:31.394Z,8.00
2023-01-09T10:12:12.911Z,8.02
2023-01-09T10:14:39.910Z,8.07
2023-01-09T10:17:32.312Z,8.12
2023-01-09T10:20:10.709Z,8.13
2023-01-09T10:23:02.334Z,8.24
2023-01-09T10:25:40.650Z,8.24
2023-01-09T10:28:31.861Z,8.32
2023-01-09T10:31:01.018Z,8.38
2023-01-09T10:33:36.785Z,8.44
2023-01-09T10:36:30.409Z,8.50
2023-01-09T10:39:04.215Z,8.62
2023-01-09T10:41:48.547Z,8.66
2023-01-09T10:44:26.010Z,8.65
2023-01-09T10:46:55.080Z,8.75
2023-01-09T10:49:23.770Z,8.85
2023-01-09T10:52:11.323Z,8.90
2023-01-09T10:55:02.636Z,8.90
2023-01-09T10:57:44.637Z,8.97
2023-01-09T11:00:21.660Z,9.04
2023-01-09T11:02:49.819Z,9.06
2023-01-09T11:05:32.431Z,9.05
2023-01-09T11:08:08.595Z,9.00
2023-01-09T11:10:54.195Z,8.89
2023-01-09T11:13:43.577Z,8.88
2023-01-09T11:16:24.001Z,8.86
2023-01-09T11:18:57.810Z,8.85
2023-01-09T11:21:28.246Z,8.77
2023-01-09T11:23:56.280Z,8.70
2023-01-09T11:26:27.936Z,8.66
2023-01-09T11:29:16.825Z,8.68
2023-01-09T11:32:02.790Z,8.65
2023-01-09T11:34:32.700Z,8.65
2023-01-09T11:37:11.917Z,8.60
2023-01-09T11:39:42.018Z,8.61
2023-01-09T11:42:47.591Z,8.61
2023-01-09T11:45:14.194Z,8.62
2023-01-09T11:47:41.252Z,8.60
2023-01-09T11:50:25.602Z,8.62
2023-01-09T11:53:13.791Z,8.58
2023-01-09T11:55:42.908Z,8.62
2023-01-09T11:58:18.636Z,8.63
2023-01-09T12:01:03.401Z,8.64
2023-01-09T12:04:05.687Z,8.60
2023-01-09T12:07:08.693Z,8.61
2023-01-09T12:10:08.858Z,8.64
2023-01-09T12:12:57.315Z,8.64
2023-01-09T12:15:46.876Z,8.64
2023-01-09T12:18:32.567Z,8.63
2023-01-09T12:21:14.179Z,8.64
2023-01-09T12:23:56.117Z,8.69
2023-01-09T12:26:32.629Z,8.70
2023-01-09T12:29:17.936Z,8.71
2023-01-09T12:31:53.439Z,8.63
2023-01-09T12:34:44.379Z,8.58
2023-01-09T12:37:23.254Z,8.56
2023-01-09T12:40:10.387Z,8.53
2023-01-09T12:42:45.758Z,8.51
2023-01-09T12:45:50.997Z,8.48
2023-01-09T12:48:38.948Z,8.47
2023-01-09T12:51:05.454Z,8.51
2023-01-09T12:53:41.024Z,8.55
2023-01-09T12:56:15.293Z,8.54
2023-01-09T12:58:52.799Z,8.46
2023-01-09T13:01:39.179Z,8.42
2023-01-09T13:04:05.733Z,8.47
2023-01-09T13:06:35.529Z,8.51
2023-01-09T13:09:28.474Z,8.48
2023-01-09T13:12:03.083Z,8.52
2023-01-09T13:14:47.553Z,8.49
2023-01-09T13:17:26.423Z,8.43
2023-01-09T13:19:54.155Z,8.46
2023-01-09T13:22:25.503Z,8.40
2023-01-09T13:25:11.360Z,8.38
2023-01-09T13:27:41.863Z,8.40
2023-01-09T13:30:21.093Z,8.41
2023-01-09T13:32:57.171Z,8.41
2023-01-09T13:35:23.897Z,8.42
2023-01-09T13:37:53.300Z,8.40
2023-01-09T13:40:19.871Z,8.32
2023-01-09T13:43:16.903Z,8.09
2023-01-09T13:45:44.862Z,7.97
2023-01-09T13:48:12.106Z,7.79
2023-01-09T13:50:40.426Z,7.66
2023-01-09T13:53:25.324Z,7.55
2023-01-09T13:55:58.456Z,7.48
2023-01-09T13:58:29.578Z,7.45
2023-01-09T14:01:05.671Z,7.38
2023-01-09T14:03:37.631Z,7.38
2023-01-09T14:06:12.198Z,7.41
2023-01-09T14:08:42.119Z,7.42
2023-01-09T14:11:09.358Z,7.45
2023-01-09T14:13:45.772Z,7.50
2023-01-09T14:16:20.447Z,7.51
2023-01-09T14:18:52.188Z,7.57
2023-01-09T14:21:19.404Z,7.58
2023-01-09T14:24:06.745Z,7.55
2023-01-09T14:26:42.910Z,7.55
2023-01-09T14:29:31.012Z,7.55
2023-01-09T14:32:22.484Z,7.54
2023-01-09T14:35:05.939Z,7.47
2023-01-09T14:37:35.997Z,7.46
2023-01-09T14:40:06.810Z,7.45
2023-01-09T14:42:35.564Z,7.45
2023-01-09T14:45:06.371Z,7.40
2023-01-09T14:47:47.061Z,7.40
2023-01-09T14:50:29.877Z,7.37
2023-01-09T14:53:08.237Z,7.36
2023-01-09T14:55:51.070Z,7.34
2023-01-09T14:58:34.805Z,7.32
2023-01-09T15:01:01.517Z,7.30
2023-01-09T15:03:39.627Z,7.22
2023-01-09T15:06:10.542Z,7.15
2023-01-09T15:08:37.329Z,7.11
2023-01-09T15:11:03.959Z,7.05
2023-01-09T15:13:34.923Z,6.99
2023-01-09T15:16:05.671Z,6.96
2023-01-09T15:18:40.718Z,6.97
2023-01-09T15:21:07.503Z,6.95
2023-01-09T15:23:34.173Z,6.96
2023-01-09T15:26:29.607Z,6.93
2023-01-09T15:29:17.900Z,6.99
2023-01-09T15:31:47.268Z,7.03
2023-01-09T15:34:23.297Z,7.09
2023-01-09T15:36:52.815Z,7.08
2023-01-09T15:39:31.392Z,7.06
2023-01-09T15:42:18.757Z,7.02
2023-01-09T15:44:48.579Z,7.01
2023-01-09T15:47:24.115Z,6.99
2023-01-09T15:49:51.145Z,7.01
2023-01-09T15:52:18.901Z,7.01
2023-01-09T15:54:49.264Z,7.02
2023-01-09T15:57:25.064Z,6.99
2023-01-09T15:59:52.609Z,7.02
2023-01-09T16:02:39.777Z,7.03
2023-01-09T16:05:09.242Z,7.10
2023-01-09T16:07:35.838Z,7.13
2023-01-09T16:10:02.637Z,7.12
2023-01-09T16:12:29.318Z,7.17
2023-01-09T16:14:59.446Z,7.20
2023-01-09T16:17:27.172Z,7.22
2023-01-09T16:19:58.217Z,7.25
2023-01-09T16:22:33.084Z,7.26
2023-01-09T16:25:02.626Z,7.32
2023-01-09T16:27:33.376Z,7.35
2023-01-09T16:30:08.595Z,7.37
2023-01-09T16:32:46.447Z,7.39
2023-01-09T16:35:19.500Z,7.42
2023-01-09T16:37:46.875Z,7.42
2023-01-09T16:40:22.460Z,7.44
2023-01-09T16:43:00.683Z,7.50
2023-01-09T16:45:34.622Z,7.48
2023-01-09T16:48:03.834Z,7.49
2023-01-09T16:50:30.450Z,7.53
2023-01-09T16:52:57.318Z,7.56
2023-01-09T16:55:24.294Z,7.59
2023-01-09T16:57:51.118Z,7.61
2023-01-09T17:00:20.467Z,7.58
2023-01-09T17:02:48.275Z,7.60
2023-01-09T17:05:15.044Z,7.63
2023-01-09T17:07:41.776Z,7.64
2023-01-09T17:10:20.030Z,7.62
2023-01-09T17:12:46.615Z,7.67
2023-01-09T17:15:13.347Z,7.67
2023-01-09T17:17:39.888Z,7.69
2023-01-09T17:20:15.334Z,7.68
2023-01-09T17:22:41.997Z,7.65
2023-01-09T17:25:32.163Z,7.62
2023-01-09T17:28:17.633Z,7.58
2023-01-09T17:30:44.173Z,7.59
2023-01-09T17:33:16.074Z,7.60
2023-01-09T17:35:43.239Z,7.61
2023-01-09T17:38:15.119Z,7.62
2023-01-09T17:40:42.913Z,7.64
2023-01-09T17:43:09.744Z,7.62
2023-01-09T17:45:38.044Z,7.61
2023-01-09T17:48:04.959Z,7.57
2023-01-09T17:50:34.691Z,7.53
2023-01-09T17:53:01.279Z,7.53
2023-01-09T17:55:27.866Z,7.47
2023-01-09T17:57:54.464Z,7.40
2023-01-09T18:00:29.054Z,7.37
2023-01-09T18:02:57.153Z,7.35
2023-01-09T18:05:25.064Z,7.29
2023-01-09T18:07:51.762Z,7.24
2023-01-09T18:10:23.280Z,7.16
2023-01-09T18:12:51.434Z,7.09
2023-01-09T18:15:18.525Z,7.06
2023-01-09T18:17:45.220Z,7.04
2023-01-09T18:20:12.467Z,7.01
2023-01-09T18:22:39.066Z,7.00
2023-01-09T18:25:06.141Z,6.97
2023-01-09T18:27:35.058Z,6.96
2023-01-09T18:30:03.683Z,6.94
2023-01-09T18:32:31.651Z,6.93
2023-01-09T18:34:58.246Z,6.95
2023-01-09T18:37:24.807Z,6.96
2023-01-09T18:39:51.353Z,6.93
2023-01-09T18:42:17.960Z,6.94
2023-01-09T18:44:44.581Z,6.94
2023-01-09T18:47:11.280Z,6.92
2023-01-09T18:49:37.999Z,6.90
2023-01-09T18:52:07.375Z,6.86
2023-01-09T18:54:34.223Z,6.86
2023-01-09T18:57:00.828Z,6.81
2023-01-09T18:59:27.364Z,6.78
2023-01-09T19:01:53.914Z,6.77
2023-01-09T19:04:20.613Z,6.78
2023-01-09T19:06:47.209Z,6.76
2023-01-09T19:09:13.849Z,6.74
2023-01-09T19:11:44.267Z,6.71
2023-01-09T19:14:11.505Z,6.67
2023-01-09T19:16:38.071Z,6.64
2023-01-09T19:19:06.567Z,6.66
2023-01-09T19:21:33.362Z,6.70
2023-01-09T19:24:00.041Z,6.69
2023-01-09T19:26:28.364Z,6.72
2023-01-09T19:28:57.411Z,6.72
2023-01-09T19:31:25.700Z,6.73
2023-01-09T19:33:52.721Z,6.71
2023-01-09T19:36:19.783Z,6.67
2023-01-09T19:38:47.058Z,6.70
2023-01-09T19:41:19.427Z,6.71
2023-01-09T19:43:47.170Z,6.78
2023-01-09T19:46:16.864Z,6.83
2023-01-09T19:48:43.428Z,6.85
2023-01-09T19:51:11.594Z,6.84
2023-01-09T19:53:38.645Z,6.86
2023-01-09T19:56:13.721Z,6.90
2023-01-09T19:58:42.335Z,6.98
2023-01-09T20:01:18.118Z,7.00
2023-01-09T20:03:46.697Z,7.02
2023-01-09T20:06:17.618Z,7.03
2023-01-09T20:08:45.620Z,7.07
2023-01-09T20:11:12.473Z,7.07
2023-01-09T20:13:39.128Z,7.07
2023-01-09T20:16:06.752Z,7.06
2023-01-09T20:18:34.631Z,7.03
2023-01-09T20:21:01.900Z,7.01
2023-01-09T20:23:28.774Z,7.05
2023-01-09T20:25:57.420Z,7.08
2023-01-09T20:28:25.321Z,7.14
2023-01-09T20:30:53.534Z,7.16
2023-01-09T20:33:21.363Z,7.19
2023-01-09T20:35:48.292Z,7.24
2023-01-09T20:38:14.920Z,7.25
2023-01-09T20:40:44.014Z,7.27
2023-01-09T20:43:12.556Z,7.32
2023-01-09T20:45:40.163Z,7.35
2023-01-09T20:48:07.172Z,7.37
2023-01-09T20:50:33.862Z,7.35
2023-01-09T20:53:00.529Z,7.37
2023-01-09T20:55:27.060Z,7.39
2023-01-09T20:57:53.638Z,7.40
2023-01-09T21:00:20.883Z,7.39
2023-01-09T21:02:47.656Z,7.40
2023-01-09T21:05:14.328Z,7.41
2023-01-09T21:07:40.935Z,7.40
2023-01-09T21:10:07.950Z,7.37
2023-01-09T21:12:37.748Z,7.34
2023-01-09T21:15:08.347Z,7.30
2023-01-09T21:17:39.566Z,7.21
2023-01-09T21:20:09.938Z,7.22
2023-01-09T21:22:37.078Z,7.15
2023-01-09T21:25:04.736Z,7.14
2023-01-09T21:27:35.769Z,7.15
2023-01-09T21:30:04.158Z,7.17
2023-01-09T21:32:32.866Z,7.17
2023-01-09T21:35:04.230Z,7.12
2023-01-09T21:37:33.554Z,7.11
2023-01-09T21:40:01.133Z,7.09
2023-01-09T21:42:46.276Z,7.06
2023-01-09T21:45:36.200Z,7.02
2023-01-09T21:48:04.606Z,6.99
2023-01-09T21:50:31.307Z,6.95
2023-01-09T21:52:57.888Z,6.97
2023-01-09T21:55:24.487Z,7.01
2023-01-09T21:57:55.896Z,7.01
2023-01-09T22:00:23.900Z,6.99
2023-01-09T22:02:51.429Z,6.99
2023-01-09T22:05:17.978Z,6.98
2023-01-09T22:07:44.579Z,6.94
2023-01-09T22:10:11.843Z,6.93
2023-01-09T22:12:38.712Z,6.88
2023-01-09T22:15:06.168Z,6.84
2023-01-09T22:17:32.875Z,6.77
2023-01-09T22:19:59.435Z,6.72
2023-01-09T22:22:26.018Z,6.69
2023-01-09T22:24:53.375Z,6.67
2023-01-09T22:27:19.965Z,6.65
2023-01-09T22:29:46.575Z,6.66
2023-01-09T22:32:13.248Z,6.67
2023-01-09T22:34:39.778Z,6.70
2023-01-09T22:37:06.469Z,6.70
2023-01-09T22:39:33.139Z,6.68
2023-01-09T22:41:59.771Z,6.66
2023-01-09T22:44:26.429Z,6.65
2023-01-09T22:46:53.110Z,6.66
2023-01-09T22:49:19.660Z,6.66
2023-01-09T22:51:46.195Z,6.67
2023-01-09T22:54:12.800Z,6.69
2023-01-09T22:56:39.352Z,6.67
2023-01-09T22:59:05.953Z,6.65
2023-01-09T23:01:32.682Z,6.69
2023-01-09T23:03:59.303Z,6.66
2023-01-09T23:06:25.982Z,6.69
2023-01-09T23:08:53.269Z,6.70
2023-01-09T23:11:47.396Z,6.70
2023-01-09T23:14:14.055Z,6.67
2023-01-09T23:16:40.803Z,6.67
2023-01-09T23:19:09.903Z,6.64
2023-01-09T23:21:37.100Z,6.64
2023-01-09T23:24:04.340Z,6.63
2023-01-09T23:26:30.962Z,6.61
2023-01-09T23:28:57.530Z,6.58
2023-01-09T23:31:24.162Z,6.57
2023-01-09T23:33:50.884Z,6.59
2023-01-09T23:36:17.484Z,6.59
2023-01-09T23:38:44.792Z,6.63
2023-01-09T23:41:11.376Z,6.65
2023-01-09T23:43:38.066Z,6.67
2023-01-09T23:46:04.787Z,6.66
2023-01-09T23:48:31.475Z,6.62
2023-01-09T23:50:58.035Z,6.62
2023-01-09T23:53:24.649Z,6.63
2023-01-09T23:55:55.176Z,6.58
2023-01-09T23:58:21.969Z,6.56
